Etusivu
METAR-TAF:

METAR-TAF

Lentoasemat :

Indianapolis, Indiana, Yhdysvallat

Leveyspiiri: 39-43-30N, Pituuspiiri: 086-16-55W, korkeus merenpinnasta: 243 m

Tämänhetkinen sää

Tämä raportti tehtiin 48 minuuttia sitten, kello 20.54 UTC
Tuuli 7 kn kaakosta
Lämpötila 28°C
Kosteus 32%
Ilmanpaine 1020 hPa
Näkyvyys: 16.1 km
Muutamia pilviä 25000 ft:n korkeudessa

METAR: KIND 242054Z 13007KT 10SM FEW250 28/10 A3011 RMK AO2 SLP190 T02830100 58019

Aika: 17:42 (21:42 UTC)

Sääennuste

Tämä raportti tehtiin 1 tunti ja 12 minuuttia sitten, kello 20.30 UTC
Ennuste voimassa 24. päivästä klo 21 UTC - 25. päivään klo 24 UTC
Tuuli 4 kn etelästä/kaakosta
Näkyvyys: 10 km
Muutamia pilviä 25000 ft:n korkeudessa
From 25. päivästä klo 1400 UTC
Tuuli 6 kn etelästä/lounaasta
Näkyvyys: 10 km
Muutamia pilviä 25000 ft:n korkeudessa

TAF: KIND 242030Z 2421/2524 15004KT P6SM FEW250 FM251400 21006KT P6SM FEW250

Säähavainnot ja -ennusteet yli 4000 lentoasemalta (METAR- ja TAF-raportit).

Käytössä olevat sääasemat on merkitty karttaan keltaisilla ja punaisilla pisteillä.

Aseta hiiri pisteen päälle nähdäksesi sääaseman nimen.

Klikkaa sitten nähdäksesi säähavainnot ja -ennusteet.

Kartan vaihtaminen: klikkaa mustalla rastilla varustettuja vihreitä pisteitä, niin voit zoomata sisään; viivalla varustettua vihreää pistettä, niin voit zoomata ulos tai vihreitä nuolia, niin pääset viereisille kartoille.


METAR-TAF: